createdAt,value
2022-11-01T00:26:46.768Z,1017.29
2022-11-01T00:55:01.758Z,1017.5
2022-11-01T01:23:53.075Z,1017.87
2022-11-01T01:52:56.183Z,1017.87
2022-11-01T02:21:46.277Z,1017.95
2022-11-01T02:50:37.117Z,1018.01
2022-11-01T03:19:01.492Z,1018.58
2022-11-01T03:47:15.652Z,1019.03
2022-11-01T04:15:36.035Z,1019.29
2022-11-01T04:43:51.462Z,1019.63
2022-11-01T05:12:09.918Z,1019.98
2022-11-01T05:40:23.274Z,1020.15
2022-11-01T06:08:44.902Z,1020.01
2022-11-01T06:37:03.751Z,1020.52
2022-11-01T07:05:21.332Z,1020.99
2022-11-01T07:33:41.747Z,1021.15
2022-11-01T08:02:08.970Z,1021.42
2022-11-01T08:30:21.688Z,1021.51
2022-11-01T08:58:52.920Z,1021.96
2022-11-01T09:27:10.536Z,1022.13
2022-11-01T09:55:29.259Z,1022.17
2022-11-01T10:23:54.626Z,1022.34
2022-11-01T10:52:11.065Z,1022.37
2022-11-01T11:20:42.174Z,1022.43
2022-11-01T11:49:12.190Z,1022.63
2022-11-01T12:17:30.787Z,1022.54
2022-11-01T12:45:42.329Z,1022.68
2022-11-01T13:14:07.365Z,1022.24
2022-11-01T13:42:32.716Z,1022.15
2022-11-01T14:11:05.584Z,1022.14
2022-11-01T14:39:30.603Z,1022.22
2022-11-01T15:08:31.753Z,1022.32
2022-11-01T15:36:49.287Z,1022.6
2022-11-01T16:05:10.776Z,1022.76
2022-11-01T16:33:27.924Z,1022.99
2022-11-01T17:02:30.703Z,1023.29
2022-11-01T17:31:10.648Z,1023.7
2022-11-01T18:00:15.699Z,1023.84
2022-11-01T18:29:08.928Z,1023.78
2022-11-01T18:57:50.099Z,1023.66
2022-11-01T19:26:37.961Z,1023.63
2022-11-01T19:55:32.371Z,1023.66
2022-11-01T20:24:34.802Z,1023.7
2022-11-01T20:53:30.554Z,1024.17
2022-11-01T21:21:59.669Z,1024.52
2022-11-01T21:50:52.339Z,1024.77
2022-11-01T22:19:57.921Z,1024.99
2022-11-01T22:48:49.700Z,1025.07
2022-11-01T23:17:37.376Z,1025.16
2022-11-01T23:46:30.192Z,1025.02
